sensor_id;sensor_type;location;lat;lon;timestamp;P1;durP1;ratioP1;P2;durP2;ratioP2
8279;SDS011;8335;42.646;23.380;2023-08-01T19:09:17;4.13;;;3.72;;
8279;SDS011;8335;42.646;23.380;2023-08-01T19:11:43;5.97;;;3.72;;
8279;SDS011;8335;42.646;23.380;2023-08-01T19:14:10;4.57;;;3.90;;
8279;SDS011;8335;42.646;23.380;2023-08-01T19:16:37;5.40;;;3.80;;
8279;SDS011;8335;42.646;23.380;2023-08-01T19:19:04;4.50;;;3.92;;
8279;SDS011;8335;42.646;23.380;2023-08-01T19:21:30;4.95;;;3.85;;
8279;SDS011;8335;42.646;23.380;2023-08-01T19:23:57;4.75;;;3.97;;
8279;SDS011;8335;42.646;23.380;2023-08-01T19:26:25;4.65;;;3.78;;
8279;SDS011;8335;42.646;23.380;2023-08-01T19:28:52;7.05;;;4.00;;
8279;SDS011;8335;42.646;23.380;2023-08-01T19:31:19;5.88;;;3.85;;
8279;SDS011;8335;42.646;23.380;2023-08-01T19:33:46;5.85;;;4.05;;
8279;SDS011;8335;42.646;23.380;2023-08-01T19:36:13;5.13;;;3.80;;
8279;SDS011;8335;42.646;23.380;2023-08-01T19:38:39;5.68;;;4.05;;
8279;SDS011;8335;42.646;23.380;2023-08-01T19:41:06;12.32;;;4.30;;
8279;SDS011;8335;42.646;23.380;2023-08-01T19:43:34;7.45;;;4.65;;
8279;SDS011;8335;42.646;23.380;2023-08-01T19:46:11;6.22;;;4.05;;
8279;SDS011;8335;42.646;23.380;2023-08-01T19:48:39;6.95;;;4.18;;
8279;SDS011;8335;42.646;23.380;2023-08-01T19:51:06;5.45;;;4.30;;
8279;SDS011;8335;42.646;23.380;2023-08-01T19:53:33;4.63;;;3.90;;
8279;SDS011;8335;42.646;23.380;2023-08-01T19:56:00;7.18;;;3.97;;
8279;SDS011;8335;42.646;23.380;2023-08-01T19:58:26;6.32;;;4.30;;
8279;SDS011;8335;42.646;23.380;2023-08-01T20:00:54;7.43;;;4.50;;
8279;SDS011;8335;42.646;23.380;2023-08-01T20:03:21;5.38;;;4.47;;
8279;SDS011;8335;42.646;23.380;2023-08-01T20:05:48;4.60;;;4.13;;
8279;SDS011;8335;42.646;23.380;2023-08-01T20:08:15;6.82;;;4.50;;
8279;SDS011;8335;42.646;23.380;2023-08-01T20:10:41;7.50;;;4.72;;
8279;SDS011;8335;42.646;23.380;2023-08-01T20:13:08;5.35;;;4.50;;
8279;SDS011;8335;42.646;23.380;2023-08-01T20:15:35;7.30;;;4.55;;
8279;SDS011;8335;42.646;23.380;2023-08-01T20:18:03;6.60;;;4.15;;
8279;SDS011;8335;42.646;23.380;2023-08-01T20:20:30;5.95;;;4.00;;
8279;SDS011;8335;42.646;23.380;2023-08-01T20:22:56;5.75;;;4.60;;
8279;SDS011;8335;42.646;23.380;2023-08-01T20:25:23;6.93;;;4.22;;
8279;SDS011;8335;42.646;23.380;2023-08-01T20:27:50;4.68;;;3.67;;
8279;SDS011;8335;42.646;23.380;2023-08-01T20:30:17;5.43;;;4.10;;
8279;SDS011;8335;42.646;23.380;2023-08-01T20:32:45;8.98;;;4.30;;
8279;SDS011;8335;42.646;23.380;2023-08-01T20:35:13;5.03;;;4.25;;
8279;SDS011;8335;42.646;23.380;2023-08-01T20:37:40;4.75;;;4.22;;
8279;SDS011;8335;42.646;23.380;2023-08-01T20:40:07;4.93;;;4.43;;
8279;SDS011;8335;42.646;23.380;2023-08-01T20:42:34;4.53;;;4.05;;
8279;SDS011;8335;42.646;23.380;2023-08-01T20:45:01;4.78;;;4.28;;
8279;SDS011;8335;42.646;23.380;2023-08-01T20:47:28;5.53;;;4.15;;
8279;SDS011;8335;42.646;23.380;2023-08-01T20:49:56;6.78;;;4.20;;
8279;SDS011;8335;42.646;23.380;2023-08-01T20:52:27;5.05;;;4.53;;
8279;SDS011;8335;42.646;23.380;2023-08-01T20:54:54;6.28;;;4.80;;
8279;SDS011;8335;42.646;23.380;2023-08-01T20:57:21;6.18;;;4.10;;
8279;SDS011;8335;42.646;23.380;2023-08-01T20:59:48;4.35;;;3.92;;
8279;SDS011;8335;42.646;23.380;2023-08-01T21:02:15;5.63;;;4.28;;
8279;SDS011;8335;42.646;23.380;2023-08-01T21:04:42;5.90;;;4.35;;
8279;SDS011;8335;42.646;23.380;2023-08-01T21:07:08;5.53;;;4.80;;
8279;SDS011;8335;42.646;23.380;2023-08-01T21:09:37;7.65;;;4.78;;
8279;SDS011;8335;42.646;23.380;2023-08-01T21:12:04;8.77;;;4.63;;
8279;SDS011;8335;42.646;23.380;2023-08-01T21:14:32;5.35;;;4.07;;
8279;SDS011;8335;42.646;23.380;2023-08-01T21:16:58;5.00;;;4.50;;
8279;SDS011;8335;42.646;23.380;2023-08-01T21:19:26;5.65;;;4.57;;
8279;SDS011;8335;42.646;23.380;2023-08-01T21:21:53;5.70;;;4.90;;
8279;SDS011;8335;42.646;23.380;2023-08-01T21:24:20;6.90;;;4.35;;
8279;SDS011;8335;42.646;23.380;2023-08-01T21:26:48;5.90;;;4.35;;
8279;SDS011;8335;42.646;23.380;2023-08-01T21:29:15;6.05;;;5.07;;
8279;SDS011;8335;42.646;23.380;2023-08-01T21:31:43;4.82;;;4.32;;
8279;SDS011;8335;42.646;23.380;2023-08-01T21:34:10;7.05;;;4.70;;
8279;SDS011;8335;42.646;23.380;2023-08-01T21:36:36;5.22;;;4.57;;
8279;SDS011;8335;42.646;23.380;2023-08-01T21:39:03;7.03;;;5.10;;
8279;SDS011;8335;42.646;23.380;2023-08-01T21:41:30;8.77;;;5.35;;
8279;SDS011;8335;42.646;23.380;2023-08-01T21:43:58;5.45;;;4.65;;
8279;SDS011;8335;42.646;23.380;2023-08-01T21:46:25;5.85;;;4.35;;
8279;SDS011;8335;42.646;23.380;2023-08-01T21:48:54;6.18;;;5.10;;
8279;SDS011;8335;42.646;23.380;2023-08-01T21:51:20;5.78;;;4.78;;
8279;SDS011;8335;42.646;23.380;2023-08-01T21:53:47;6.15;;;5.25;;
8279;SDS011;8335;42.646;23.380;2023-08-01T21:56:15;5.03;;;4.32;;
8279;SDS011;8335;42.646;23.380;2023-08-01T21:58:42;6.72;;;4.50;;
8279;SDS011;8335;42.646;23.380;2023-08-01T22:01:10;6.55;;;4.57;;
8279;SDS011;8335;42.646;23.380;2023-08-01T22:03:37;5.22;;;4.38;;
8279;SDS011;8335;42.646;23.380;2023-08-01T22:06:04;4.90;;;4.40;;
8279;SDS011;8335;42.646;23.380;2023-08-01T22:08:31;7.70;;;4.78;;
8279;SDS011;8335;42.646;23.380;2023-08-01T22:10:58;6.18;;;5.25;;
8279;SDS011;8335;42.646;23.380;2023-08-01T22:13:25;4.93;;;4.47;;
8279;SDS011;8335;42.646;23.380;2023-08-01T22:15:52;5.85;;;4.93;;
8279;SDS011;8335;42.646;23.380;2023-08-01T22:18:20;6.28;;;4.30;;
8279;SDS011;8335;42.646;23.380;2023-08-01T22:20:49;5.55;;;4.57;;
8279;SDS011;8335;42.646;23.380;2023-08-01T22:23:17;5.40;;;4.43;;
8279;SDS011;8335;42.646;23.380;2023-08-01T22:25:44;6.88;;;4.85;;
8279;SDS011;8335;42.646;23.380;2023-08-01T22:28:11;5.03;;;4.47;;
8279;SDS011;8335;42.646;23.380;2023-08-01T22:30:38;5.88;;;4.72;;
8279;SDS011;8335;42.646;23.380;2023-08-01T22:33:05;5.38;;;4.88;;
8279;SDS011;8335;42.646;23.380;2023-08-01T22:35:33;5.32;;;4.75;;
8279;SDS011;8335;42.646;23.380;2023-08-01T22:38:00;7.22;;;5.95;;
8279;SDS011;8335;42.646;23.380;2023-08-01T22:40:27;6.85;;;4.78;;
8279;SDS011;8335;42.646;23.380;2023-08-01T22:42:55;5.60;;;5.10;;
8279;SDS011;8335;42.646;23.380;2023-08-01T22:45:22;5.13;;;4.63;;
8279;SDS011;8335;42.646;23.380;2023-08-01T22:47:50;5.38;;;4.63;;
8279;SDS011;8335;42.646;23.380;2023-08-01T22:50:18;5.70;;;5.03;;
8279;SDS011;8335;42.646;23.380;2023-08-01T22:52:46;6.70;;;5.38;;
8279;SDS011;8335;42.646;23.380;2023-08-01T22:55:14;7.95;;;5.05;;
8279;SDS011;8335;42.646;23.380;2023-08-01T22:57:42;5.30;;;4.80;;
8279;SDS011;8335;42.646;23.380;2023-08-01T23:00:09;5.40;;;4.90;;
8279;SDS011;8335;42.646;23.380;2023-08-01T23:02:37;5.65;;;5.15;;
8279;SDS011;8335;42.646;23.380;2023-08-01T23:05:04;6.18;;;4.80;;
8279;SDS011;8335;42.646;23.380;2023-08-01T23:07:32;5.43;;;4.93;;
8279;SDS011;8335;42.646;23.380;2023-08-01T23:10:01;5.88;;;5.22;;
8279;SDS011;8335;42.646;23.380;2023-08-01T23:12:30;5.82;;;5.22;;
8279;SDS011;8335;42.646;23.380;2023-08-01T23:14:57;5.75;;;4.80;;
8279;SDS011;8335;42.646;23.380;2023-08-01T23:17:24;6.18;;;4.80;;
8279;SDS011;8335;42.646;23.380;2023-08-01T23:19:56;6.25;;;5.40;;
8279;SDS011;8335;42.646;23.380;2023-08-01T23:22:23;6.57;;;5.50;;
8279;SDS011;8335;42.646;23.380;2023-08-01T23:24:50;5.32;;;4.82;;
8279;SDS011;8335;42.646;23.380;2023-08-01T23:27:19;6.13;;;5.05;;
8279;SDS011;8335;42.646;23.380;2023-08-01T23:29:50;5.68;;;5.10;;
8279;SDS011;8335;42.646;23.380;2023-08-01T23:32:17;6.55;;;5.28;;
8279;SDS011;8335;42.646;23.380;2023-08-01T23:34:44;6.80;;;5.78;;
8279;SDS011;8335;42.646;23.380;2023-08-01T23:37:11;5.47;;;4.80;;
8279;SDS011;8335;42.646;23.380;2023-08-01T23:39:38;7.05;;;5.38;;
8279;SDS011;8335;42.646;23.380;2023-08-01T23:42:05;7.13;;;5.18;;
8279;SDS011;8335;42.646;23.380;2023-08-01T23:44:34;6.78;;;5.30;;
8279;SDS011;8335;42.646;23.380;2023-08-01T23:47:00;7.40;;;5.68;;
8279;SDS011;8335;42.646;23.380;2023-08-01T23:49:29;7.22;;;5.50;;
8279;SDS011;8335;42.646;23.380;2023-08-01T23:51:57;7.55;;;5.18;;
8279;SDS011;8335;42.646;23.380;2023-08-01T23:54:24;7.47;;;5.57;;
8279;SDS011;8335;42.646;23.380;2023-08-01T23:56:50;6.65;;;5.75;;
8279;SDS011;8335;42.646;23.380;2023-08-01T23:59:17;6.07;;;5.38;;
